Élőkép

Információk

Albatrosz Repülő Egyesület
8000 Székesfehérvár,
Radványi utca 6.

Adószám:
19092908-2-07

Bankszámla szám:
Budapest Bank
10102952-01361819-00000001

Telefon: +36 30 9598-897

Telephey: Börgönd repülőtér

Börgöndi repülõtér

LHBP METAR/TAF

[source: ADDS]
METAR
TAF LHBP 241700Z 2418/2518 05009KT 9999 OVC010 BECMG 2418/2421 08004KT TEMPO 2418/2506 2000 BR OVC004 BECMG 2509/2512 14004KT 9999 SCT015 TAF
TAF LHBP 241700Z 2418/2518 05009KT 9999 OVC010 BECMG 2418/2421 08004KT TEMPO 2418/2506 2000 BR OVC004 BECMG 2509/2512 14004KT 9999 SCT015 =
SR / SS: 05:19 / 15:44 UTC (Börgönd 2014-10-24)
Hungarian Chinese (Simplified) Croatian Czech English Finnish French German Hebrew Italian Japanese Polish Portuguese Romanian Russian Serbian Slovak Slovenian Spanish

Belépés tagoknak